createdAt,value
2022-09-25T00:13:26.943Z,63.37
2022-09-25T00:15:55.799Z,55.90
2022-09-25T00:18:42.477Z,55.30
2022-09-25T00:21:14.575Z,54.03
2022-09-25T00:24:08.771Z,50.00
2022-09-25T00:26:38.108Z,51.90
2022-09-25T00:29:05.495Z,56.23
2022-09-25T00:36:52.039Z,60.93
2022-09-25T00:39:18.513Z,59.43
2022-09-25T00:42:05.383Z,53.97
2022-09-25T00:44:57.022Z,56.47
2022-09-25T00:47:51.930Z,56.87
2022-09-25T00:50:37.444Z,52.83
2022-09-25T00:53:14.932Z,55.33
2022-09-25T00:55:44.156Z,52.07
2022-09-25T00:58:16.492Z,56.63
2022-09-25T01:05:51.201Z,55.37
2022-09-25T01:08:22.308Z,51.17
2022-09-25T01:10:49.139Z,58.40
2022-09-25T01:13:16.334Z,53.93
2022-09-25T01:16:09.064Z,46.60
2022-09-25T01:18:44.074Z,53.87
2022-09-25T01:21:29.876Z,51.53
2022-09-25T01:37:32.113Z,53.10
2022-09-25T01:39:58.438Z,55.23
2022-09-25T01:42:29.485Z,47.50
2022-09-25T01:45:09.667Z,47.83
2022-09-25T01:47:49.465Z,54.33
2022-09-25T01:50:40.095Z,53.07
2022-09-25T01:53:11.604Z,48.27
2022-09-25T01:55:44.235Z,47.70
2022-09-25T02:19:52.072Z,51.93
2022-09-25T02:22:35.232Z,49.50
2022-09-25T02:25:40.275Z,47.00
2022-09-25T02:28:06.778Z,48.13
2022-09-25T02:30:33.223Z,50.27
2022-09-25T02:32:59.457Z,44.63
2022-09-25T02:35:25.914Z,47.93
2022-09-25T02:37:55.589Z,44.27
2022-09-25T02:40:40.842Z,42.47
2022-09-25T03:01:49.317Z,46.20
2022-09-25T03:04:18.533Z,44.93
2022-09-25T03:06:46.251Z,41.57
2022-09-25T03:09:14.793Z,45.20
2022-09-25T03:11:42.880Z,41.20
2022-09-25T03:14:09.599Z,47.27
2022-09-25T03:16:36.366Z,44.60
2022-09-25T03:19:03.198Z,42.77
2022-09-25T03:21:29.442Z,43.70
2022-09-25T03:39:50.677Z,48.47
2022-09-25T03:42:19.364Z,40.07
2022-09-25T03:44:45.694Z,42.07
2022-09-25T03:47:13.328Z,43.37
2022-09-25T03:49:39.712Z,39.50
2022-09-25T03:52:06.050Z,40.77
2022-09-25T03:54:32.255Z,43.13
2022-09-25T03:56:58.597Z,42.00
2022-09-25T03:59:24.808Z,42.00
2022-09-25T04:17:25.298Z,41.83
2022-09-25T04:19:52.274Z,38.10
2022-09-25T04:22:23.975Z,39.23
2022-09-25T04:25:02.450Z,40.90
2022-09-25T04:27:28.692Z,41.80
2022-09-25T04:29:54.950Z,36.27
2022-09-25T04:32:39.799Z,38.13
2022-09-25T04:35:06.455Z,39.13
2022-09-25T04:54:01.380Z,38.93
2022-09-25T04:56:27.816Z,39.17
2022-09-25T04:58:54.000Z,35.23
2022-09-25T05:01:20.897Z,41.00
2022-09-25T05:03:52.655Z,39.87
2022-09-25T05:06:19.564Z,40.70
2022-09-25T05:08:49.088Z,38.00
2022-09-25T05:11:15.778Z,39.23
2022-09-25T05:13:45.983Z,45.47
2022-09-25T05:31:48.083Z,44.73
2022-09-25T05:34:14.945Z,40.47
2022-09-25T05:36:41.582Z,46.07
2022-09-25T05:39:17.748Z,45.50
2022-09-25T05:41:44.136Z,45.40
2022-09-25T05:44:10.878Z,39.90
2022-09-25T05:46:37.341Z,41.47
2022-09-25T05:49:04.353Z,41.03
2022-09-25T06:04:42.522Z,36.03
2022-09-25T06:07:31.980Z,34.50
2022-09-25T06:10:10.797Z,38.07
2022-09-25T06:12:37.316Z,31.90
2022-09-25T06:15:04.248Z,34.13
2022-09-25T06:17:30.435Z,34.50
2022-09-25T06:19:56.816Z,33.33
2022-09-25T06:22:23.006Z,31.63
2022-09-25T06:24:49.242Z,32.90
2022-09-25T06:46:53.815Z,26.13
2022-09-25T06:49:21.221Z,27.87
2022-09-25T06:51:47.733Z,26.30
2022-09-25T06:54:14.039Z,23.80
2022-09-25T06:56:40.502Z,24.30
2022-09-25T06:59:08.534Z,24.10
2022-09-25T07:01:39.703Z,23.83
2022-09-25T07:04:15.007Z,21.03
2022-09-25T07:06:41.213Z,23.03
2022-09-25T07:09:07.727Z,22.80
2022-09-25T07:11:34.458Z,21.23
2022-09-25T07:32:17.419Z,21.50
2022-09-25T07:34:43.787Z,22.53
2022-09-25T07:37:10.239Z,22.87
2022-09-25T07:39:46.218Z,22.83
2022-09-25T07:42:12.819Z,25.50
2022-09-25T07:44:40.014Z,24.13
2022-09-25T07:47:08.378Z,21.43
2022-09-25T07:49:35.223Z,21.43
2022-09-25T08:12:49.100Z,24.90
2022-09-25T08:15:15.707Z,22.57
2022-09-25T08:17:42.541Z,23.70
2022-09-25T08:20:09.671Z,22.43
2022-09-25T08:22:36.304Z,22.33
2022-09-25T08:25:04.303Z,19.83
2022-09-25T08:27:40.283Z,21.90
2022-09-25T08:30:08.812Z,21.37
2022-09-25T08:48:40.943Z,24.73
2022-09-25T08:51:08.702Z,18.57
2022-09-25T08:54:21.196Z,20.63
2022-09-25T08:56:55.256Z,22.80
2022-09-25T08:59:47.709Z,23.20
2022-09-25T09:02:18.328Z,25.03
2022-09-25T09:04:57.160Z,23.57
2022-09-25T09:36:43.641Z,19.30
2022-09-25T09:39:35.481Z,17.67
2022-09-25T09:46:18.176Z,17.30
2022-09-25T09:49:03.969Z,16.80
2022-09-25T09:51:36.782Z,14.10
2022-09-25T09:54:21.671Z,16.20
2022-09-25T10:03:09.726Z,15.00
2022-09-25T10:05:47.878Z,10.13
2022-09-25T10:08:16.424Z,17.70
2022-09-25T10:10:55.044Z,11.97
2022-09-25T10:13:35.495Z,11.70
2022-09-25T10:16:15.251Z,14.27
2022-09-25T10:19:23.041Z,12.47
2022-09-25T10:21:59.973Z,12.77
2022-09-25T10:38:38.848Z,11.73
2022-09-25T10:41:12.034Z,11.73
2022-09-25T10:44:18.154Z,10.43
2022-09-25T10:47:09.094Z,13.10
2022-09-25T10:50:06.677Z,9.23
2022-09-25T10:53:01.314Z,12.47
2022-09-25T10:55:37.355Z,10.20
2022-09-25T12:23:59.194Z,7.20
2022-09-25T12:26:45.259Z,6.17
2022-09-25T12:29:21.618Z,6.10
2022-09-25T12:32:41.015Z,7.13
2022-09-25T12:35:35.322Z,7.13
2022-09-25T12:38:12.203Z,7.30
2022-09-25T12:40:51.503Z,5.57
2022-09-25T14:44:14.024Z,8.93
2022-09-25T14:46:41.375Z,9.17
2022-09-25T14:49:27.965Z,10.30
2022-09-25T14:52:35.631Z,9.23
2022-09-25T14:55:03.628Z,11.43
2022-09-25T14:57:36.431Z,12.70
2022-09-25T15:00:07.302Z,9.37
2022-09-25T15:02:39.151Z,9.27
2022-09-25T15:20:54.854Z,11.80
2022-09-25T15:23:21.815Z,13.77
2022-09-25T15:25:51.794Z,14.23
2022-09-25T15:28:31.434Z,16.30
2022-09-25T15:31:01.034Z,13.17
2022-09-25T15:33:34.492Z,13.47
2022-09-25T15:36:07.905Z,15.33
2022-09-25T15:38:36.480Z,13.60
2022-09-25T15:41:07.038Z,15.33
2022-09-25T16:48:21.646Z,17.57
2022-09-25T16:50:48.418Z,21.27
2022-09-25T16:53:14.835Z,20.63
2022-09-25T16:55:47.708Z,23.63
2022-09-25T16:58:14.379Z,22.73
2022-09-25T17:00:40.703Z,21.37
2022-09-25T17:03:14.922Z,28.43
2022-09-25T17:18:56.677Z,22.83
2022-09-25T17:22:32.313Z,26.37
2022-09-25T17:25:02.128Z,20.70
2022-09-25T17:27:28.666Z,24.20
2022-09-25T17:29:55.081Z,21.03
2022-09-25T17:32:21.897Z,20.37
2022-09-25T17:34:49.815Z,26.03
2022-09-25T17:37:16.107Z,24.87
2022-09-25T17:39:42.529Z,19.83
2022-09-25T18:05:47.968Z,21.00
2022-09-25T18:08:14.658Z,18.57
2022-09-25T18:10:41.509Z,25.07
2022-09-25T18:13:15.220Z,19.93
2022-09-25T18:15:49.474Z,22.87
2022-09-25T18:18:16.163Z,23.77
2022-09-25T18:21:04.561Z,28.70
2022-09-25T18:23:34.661Z,26.47
2022-09-25T18:31:22.584Z,24.53
2022-09-25T18:33:57.298Z,24.93
2022-09-25T18:36:30.492Z,25.03
2022-09-25T18:38:56.937Z,25.40
2022-09-25T18:41:23.335Z,25.17
2022-09-25T18:43:49.593Z,24.30
2022-09-25T18:46:16.478Z,23.77
2022-09-25T18:48:47.165Z,30.57
2022-09-25T19:08:55.184Z,36.87
2022-09-25T19:11:32.274Z,27.63
2022-09-25T19:14:04.034Z,26.63
2022-09-25T19:16:37.849Z,34.90
2022-09-25T19:19:04.701Z,33.97
2022-09-25T19:21:32.219Z,31.33
2022-09-25T19:23:58.734Z,29.90
2022-09-25T19:26:25.180Z,29.77
2022-09-25T19:28:56.484Z,34.03
2022-09-25T19:31:25.646Z,34.57
2022-09-25T19:49:19.641Z,37.00
2022-09-25T19:51:46.079Z,39.30
2022-09-25T19:54:14.059Z,60.77
2022-09-25T19:57:31.258Z,33.47
2022-09-25T19:59:59.731Z,38.97
2022-09-25T20:02:26.110Z,53.87
2022-09-25T20:04:52.473Z,40.93
2022-09-25T20:07:18.820Z,33.50
2022-09-25T20:25:51.333Z,42.03
2022-09-25T20:28:58.011Z,37.60
2022-09-25T20:31:26.018Z,34.97
2022-09-25T20:33:53.428Z,39.83
2022-09-25T20:36:20.816Z,40.97
2022-09-25T20:38:52.042Z,45.97
2022-09-25T20:41:19.617Z,39.40
2022-09-25T20:43:53.582Z,41.83
2022-09-25T20:46:20.742Z,37.73
2022-09-25T20:48:50.354Z,37.50
2022-09-25T21:07:00.949Z,34.77
2022-09-25T21:09:28.290Z,33.17
2022-09-25T21:11:55.287Z,32.73
2022-09-25T21:14:28.554Z,34.67
2022-09-25T21:16:58.274Z,39.83
2022-09-25T21:19:25.496Z,39.60
2022-09-25T21:21:51.819Z,34.87
2022-09-25T21:24:19.802Z,33.47
2022-09-25T21:39:56.758Z,37.33
2022-09-25T21:42:47.090Z,39.10
2022-09-25T21:45:13.488Z,34.47
2022-09-25T21:47:39.855Z,40.70
2022-09-25T21:50:06.359Z,39.50
2022-09-25T21:52:32.576Z,36.33
2022-09-25T21:54:59.006Z,36.03
2022-09-25T21:57:25.165Z,35.90
2022-09-25T21:59:55.024Z,37.13
2022-09-25T22:07:27.747Z,41.50
2022-09-25T22:09:55.843Z,35.53
2022-09-25T22:12:22.905Z,33.67
2022-09-25T22:14:50.812Z,37.30
2022-09-25T22:17:27.483Z,35.33
2022-09-25T22:19:54.327Z,35.93
2022-09-25T22:22:20.723Z,33.30
2022-09-25T22:38:11.058Z,40.60
2022-09-25T22:40:38.619Z,36.10
2022-09-25T22:43:06.172Z,34.97
2022-09-25T22:45:33.110Z,34.93
2022-09-25T22:48:18.915Z,33.33
2022-09-25T22:50:56.625Z,36.27
2022-09-25T22:53:23.946Z,33.27
2022-09-25T22:55:50.855Z,39.80
2022-09-25T22:58:18.669Z,38.23
2022-09-25T23:15:10.266Z,39.73
2022-09-25T23:17:38.627Z,38.40
2022-09-25T23:20:05.489Z,35.63
2022-09-25T23:22:31.724Z,33.30
2022-09-25T23:24:58.133Z,36.37
2022-09-25T23:27:24.335Z,36.07
2022-09-25T23:29:50.558Z,39.27
2022-09-25T23:32:19.627Z,32.03
2022-09-25T23:52:32.868Z,38.20
2022-09-25T23:55:01.205Z,37.87
2022-09-25T23:57:27.376Z,34.00
2022-09-25T23:59:53.543Z,32.50
